Time;durP1;ratioP1;P1;durP2;ratioP2;P2;SDS_P1;SDS_P2;PMS_P1;PMS_P2;Temp;Humidity;BMP_temperature;BMP_pressure;BME280_temperature;BME280_humidity;BME280_pressure;Samples;Min_cycle;Max_cycle;Signal;HPM_P1;HPM_P2
2021/11/07 00:11:30;;;;;;;290.88;271.23;;;;;;;10.50;100.00;95633.09;10507731;28;20039;-87
2021/11/07 00:16:34;;;;;;;67.60;28.40;;;;;;;10.58;100.00;95626.47;10501051;28;20042;-87
2021/11/07 00:22:29;;;;;;;316.00;291.70;;;;;;;10.63;100.00;95636.47;10506412;28;20028;-87
2021/11/07 00:27:06;;;;;;;55.05;27.55;;;;;;;10.72;100.00;95635.78;10505834;28;20035;-86
2021/11/07 00:33:18;;;;;;;50.95;24.73;;;;;;;10.66;100.00;95628.72;10544047;28;20051;-87
2021/11/07 00:37:39;;;;;;;63.60;24.98;;;;;;;10.73;100.00;95642.78;10512479;28;20040;-87
2021/11/07 00:42:50;;;;;;;57.42;25.77;;;;;;;10.81;100.00;95643.41;10530682;28;20031;-87
2021/11/07 00:48:17;;;;;;;54.30;24.55;;;;;;;10.84;100.00;95632.13;10530292;28;20108;-87
2021/11/07 00:58:41;;;;;;;50.17;24.95;;;;;;;10.76;100.00;95618.06;10533542;28;20475;-87
2021/11/07 01:03:41;;;;;;;73.28;25.52;;;;;;;10.73;100.00;95607.84;10520576;28;20031;-87
2021/11/07 01:08:42;;;;;;;58.38;23.48;;;;;;;10.63;100.00;95601.53;10511748;28;20034;-87
2021/11/07 01:13:44;;;;;;;62.72;26.30;;;;;;;10.63;100.00;95583.50;10511613;28;20044;-87
2021/11/07 01:18:46;;;;;;;51.20;22.92;;;;;;;10.59;100.00;95582.38;10529873;28;20107;-86
2021/11/07 01:24:04;;;;;;;58.08;24.90;;;;;;;10.54;100.00;95591.22;10511447;28;20028;-86
2021/11/07 01:29:12;;;;;;;58.00;24.00;;;;;;;10.64;100.00;95587.03;10511117;28;20035;-86
2021/11/07 01:34:26;;;;;;;51.70;23.50;;;;;;;10.54;100.00;95579.66;10529155;28;20482;-86
2021/11/07 01:45:26;;;;;;;59.35;23.15;;;;;;;10.57;100.00;95574.56;10528376;28;20036;-86
2021/11/07 01:50:07;;;;;;;58.05;22.05;;;;;;;10.52;100.00;95571.84;10518538;28;20763;-86
2021/11/07 01:55:09;;;;;;;46.17;20.08;;;;;;;10.55;100.00;95559.78;10511426;28;20020;-86
2021/11/07 02:00:21;;;;;;;53.85;22.88;;;;;;;10.47;100.00;95579.84;10511079;28;20102;-88
2021/11/07 02:05:21;;;;;;;47.65;20.50;;;;;;;10.33;100.00;95582.06;10510258;28;20070;-86
2021/11/07 02:10:22;;;;;;;49.17;21.95;;;;;;;10.19;100.00;95586.22;10494515;28;20078;-86
2021/11/07 02:15:23;;;;;;;51.63;21.50;;;;;;;10.22;100.00;95583.81;10526721;28;20028;-85
2021/11/07 02:20:50;;;;;;;46.53;21.67;;;;;;;10.06;100.00;95580.13;10534523;28;20027;-85
2021/11/07 02:25:54;;;;;;;47.45;22.23;;;;;;;9.99;100.00;95574.16;10531985;28;20032;-86
2021/11/07 02:30:55;;;;;;;48.50;22.20;;;;;;;9.83;100.00;95577.69;10509731;28;20020;-85
2021/11/07 02:35:56;;;;;;;52.60;25.30;;;;;;;9.66;100.00;95577.72;10526798;28;20081;-87
2021/11/07 02:41:11;;;;;;;61.28;25.30;;;;;;;9.69;100.00;95574.53;10508732;28;20575;-87
2021/11/07 02:46:18;;;;;;;54.25;24.65;;;;;;;9.82;100.00;95570.66;10512044;28;20032;-86
2021/11/07 02:51:44;;;;;;;51.47;25.05;;;;;;;9.88;100.00;95567.00;10532538;28;20028;-87
2021/11/07 02:56:46;;;;;;;57.15;25.10;;;;;;;9.88;100.00;95575.06;10508549;28;20852;-89
2021/11/07 03:01:47;;;;;;;58.80;24.17;;;;;;;9.95;100.00;95556.06;10509443;28;20562;-87
2021/11/07 03:06:48;;;;;;;56.65;22.83;;;;;;;10.04;100.00;95558.06;10525941;28;20024;-86
2021/11/07 03:11:51;;;;;;;63.65;23.88;;;;;;;9.99;100.00;95570.63;10509710;28;20115;-87
2021/11/07 03:16:54;;;;;;;57.65;24.00;;;;;;;10.01;100.00;95572.00;10507228;28;20043;-87
2021/11/07 03:22:01;;;;;;;53.45;20.95;;;;;;;9.86;100.00;95566.44;10525199;28;20042;-87
2021/11/07 03:27:12;;;;;;;52.23;21.07;;;;;;;9.90;100.00;95571.06;10507245;28;20024;-86
2021/11/07 03:32:21;;;;;;;44.13;18.00;;;;;;;9.98;100.00;95577.88;10507225;28;20039;-85
2021/11/07 03:37:23;;;;;;;43.60;18.88;;;;;;;9.93;100.00;95585.84;10506580;28;20040;-86
2021/11/07 03:42:25;;;;;;;45.85;20.67;;;;;;;9.86;100.00;95582.53;10507454;28;20039;-87
2021/11/07 03:47:26;;;;;;;42.97;18.85;;;;;;;9.80;100.00;95580.84;10507031;28;20028;-86
2021/11/07 03:52:35;;;;;;;42.40;21.52;;;;;;;9.64;100.00;95583.31;10525270;28;20043;-87
2021/11/07 03:57:35;;;;;;;44.53;20.35;;;;;;;9.77;100.00;95576.78;10507204;28;20035;-87
2021/11/07 04:02:39;;;;;;;41.83;19.05;;;;;;;9.78;100.00;95588.34;10526805;28;20019;-87
2021/11/07 04:07:40;;;;;;;37.63;18.65;;;;;;;9.79;100.00;95585.41;10533841;28;20032;-87
2021/11/07 04:12:43;;;;;;;44.38;18.75;;;;;;;9.83;100.00;95585.72;10516487;28;20036;-87
2021/11/07 04:17:44;;;;;;;41.25;17.42;;;;;;;9.85;100.00;95584.44;10516842;28;20020;-86
2021/11/07 04:23:10;;;;;;;47.40;20.45;;;;;;;9.85;100.00;95586.28;10534830;28;20032;-86
2021/11/07 04:28:11;;;;;;;42.50;17.83;;;;;;;9.89;100.00;95590.94;10536296;28;20412;-86
2021/11/07 04:33:11;;;;;;;40.55;17.00;;;;;;;9.93;100.00;95572.44;10542770;28;20031;-86
2021/11/07 04:38:12;;;;;;;31.52;16.77;;;;;;;10.13;100.00;95571.06;10533684;28;20526;-85
2021/11/07 04:43:13;;;;;;;43.20;18.50;;;;;;;10.10;100.00;95567.00;10533704;28;20028;-84
2021/11/07 04:48:13;;;;;;;39.38;17.88;;;;;;;10.18;100.00;95557.72;10536362;28;20475;-87
2021/11/07 04:53:15;;;;;;;39.92;17.27;;;;;;;10.22;100.00;95542.72;10553394;28;20028;-92
2021/11/07 04:58:17;;;;;;;39.28;17.65;;;;;;;10.25;100.00;95553.75;10530499;28;20093;-92
2021/11/07 05:03:18;;;;;;;41.72;18.15;;;;;;;10.20;100.00;95560.94;10526577;28;20088;-92
2021/11/07 05:08:19;;;;;;;38.67;17.27;;;;;;;10.06;100.00;95564.03;10522955;28;20115;-91
2021/11/07 05:13:20;;;;;;;35.25;19.23;;;;;;;9.90;100.00;95562.19;10536849;28;20028;-93
2021/11/07 05:18:21;;;;;;;45.25;18.17;;;;;;;9.72;100.00;95574.03;10511002;28;20483;-91
2021/11/07 05:23:25;;;;;;;48.83;19.73;;;;;;;9.60;100.00;95578.69;10483982;28;20111;-92
2021/11/07 05:28:26;;;;;;;47.92;20.33;;;;;;;9.55;100.00;95582.09;10483821;28;20024;-92
2021/11/07 05:39:23;;;;;;;43.85;21.20;;;;;;;9.93;100.00;95585.84;10502807;28;20052;-91
2021/11/07 05:50:22;;;;;;;38.78;19.50;;;;;;;10.30;100.00;95581.75;10497767;28;20764;-86
2021/11/07 05:55:23;;;;;;;49.50;19.85;;;;;;;10.30;100.00;95577.22;10468963;28;20033;-87
2021/11/07 06:00:24;;;;;;;47.22;19.50;;;;;;;10.58;100.00;95570.03;10468848;28;20025;-87
2021/11/07 06:05:24;;;;;;;44.83;19.63;;;;;;;10.78;100.00;95583.66;10468703;28;20398;-88
2021/11/07 06:10:25;;;;;;;48.70;18.85;;;;;;;10.88;100.00;95580.28;10470457;28;20036;-87
2021/11/07 06:15:25;;;;;;;39.63;17.05;;;;;;;11.08;100.00;95579.66;10477979;28;20111;-87
2021/11/07 06:20:26;;;;;;;44.45;17.95;;;;;;;11.30;100.00;95589.53;10490037;28;20024;-88
2021/11/07 06:25:26;;;;;;;44.60;18.73;;;;;;;11.48;100.00;95599.09;10485815;28;20044;-91
2021/11/07 06:30:28;;;;;;;38.13;17.90;;;;;;;11.32;100.00;95595.47;10477802;28;20384;-81
2021/11/07 06:35:28;;;;;;;46.72;18.58;;;;;;;11.41;100.00;95602.03;10485918;28;20128;-82
2021/11/07 06:40:28;;;;;;;46.33;17.75;;;;;;;11.54;100.00;95599.94;10484471;28;20119;-83
2021/11/07 06:45:32;;;;;;;47.17;20.13;;;;;;;11.78;100.00;95598.50;10466617;28;20104;-83
2021/11/07 06:50:35;;;;;;;39.60;18.77;;;;;;;11.84;100.00;95585.09;10468209;28;20028;-87
2021/11/07 06:55:36;;;;;;;46.72;19.88;;;;;;;12.03;100.00;95589.00;10468428;28;20032;-85
2021/11/07 07:00:37;;;;;;;46.65;19.30;;;;;;;12.19;100.00;95597.16;10485426;28;20025;-80
2021/11/07 07:05:38;;;;;;;45.38;20.40;;;;;;;12.42;100.00;95590.50;10468383;28;20035;-81
2021/11/07 07:10:49;;;;;;;46.42;21.05;;;;;;;13.03;100.00;95584.50;10465821;28;20495;-80
2021/11/07 07:16:01;;;;;;;51.40;20.73;;;;;;;12.90;100.00;95590.41;10486490;28;20491;-80
2021/11/07 07:36:58;;;;;;;45.00;20.92;;;;;;;13.34;100.00;95576.44;10483768;28;20019;-83
2021/11/07 07:41:58;;;;;;;46.08;19.30;;;;;;;14.42;100.00;95575.47;10471687;28;20080;-77
2021/11/07 07:47:15;;;;;;;44.42;18.63;;;;;;;14.81;100.00;95553.91;10488865;28;20173;-84
2021/11/07 07:52:25;;;;;;;46.53;18.98;;;;;;;14.88;100.00;95560.94;10535000;28;20032;-87
2021/11/07 07:57:28;;;;;;;50.10;23.08;;;;;;;14.71;100.00;95567.50;10524666;28;20027;-92
2021/11/07 08:02:29;;;;;;;51.13;20.17;;;;;;;15.34;100.00;95574.16;10515003;28;20111;-81
2021/11/07 08:07:30;;;;;;;44.95;19.42;;;;;;;15.11;100.00;95572.94;10527777;28;20061;-86
2021/11/07 08:12:30;;;;;;;40.50;19.73;;;;;;;15.12;100.00;95571.88;10527410;28;20036;-90
2021/11/07 08:17:31;;;;;;;50.72;21.27;;;;;;;15.18;100.00;95565.31;10478940;28;20090;-87
2021/11/07 08:22:32;;;;;;;48.00;19.63;;;;;;;15.31;100.00;95567.41;10472705;28;20028;-87
2021/11/07 08:27:33;;;;;;;43.33;19.42;;;;;;;15.84;100.00;95572.13;10503853;28;20028;-87
2021/11/07 08:32:34;;;;;;;40.65;17.88;;;;;;;16.17;100.00;95555.25;10516444;28;20015;-86
2021/11/07 08:37:44;;;;;;;39.45;16.95;;;;;;;16.35;100.00;95545.53;10513654;28;20161;-88
2021/11/07 08:42:57;;;;;;;36.67;17.05;;;;;;;16.43;100.00;95536.75;10528165;28;20112;-87
2021/11/07 09:04:06;;;;;;;35.53;15.63;;;;;;;17.19;100.00;95485.22;10502750;28;20044;-82
2021/11/07 09:09:14;;;;;;;70.70;63.50;;;;;;;17.00;100.00;95473.59;10468992;28;20032;-81
2021/11/07 09:14:18;;;;;;;30.83;14.23;;;;;;;17.60;100.00;95462.75;10486607;28;20403;-83
2021/11/07 09:19:23;;;;;;;30.95;11.45;;;;;;;19.02;100.00;95461.25;10487976;28;20027;-81
2021/11/07 09:24:29;;;;;;;23.60;11.80;;;;;;;20.03;100.00;95440.94;10487762;28;20040;-82
2021/11/07 09:29:43;;;;;;;21.48;11.00;;;;;;;20.86;100.00;95431.13;10468629;28;20112;-82
2021/11/07 09:34:51;;;;;;;21.85;10.10;;;;;;;22.40;90.21;95422.34;10486078;28;20112;-82
2021/11/07 09:39:59;;;;;;;23.05;9.80;;;;;;;23.01;81.67;95416.38;10486282;28;20128;-82
2021/11/07 09:45:10;;;;;;;23.67;10.32;;;;;;;23.51;74.46;95417.38;10488568;28;20020;-82
2021/11/07 09:50:13;;;;;;;90.07;82.07;;;;;;;24.91;66.93;95399.81;10487810;28;20491;-81
2021/11/07 09:55:14;;;;;;;25.30;11.32;;;;;;;25.78;58.00;95402.16;10487567;28;20051;-84
2021/11/07 10:00:20;;;;;;;20.30;10.40;;;;;;;26.18;56.08;95397.63;10463586;28;20073;-78
2021/11/07 10:05:21;;;;;;;19.90;9.50;;;;;;;25.72;57.21;95382.34;10521734;28;20031;-77
2021/11/07 10:10:24;;;;;;;19.52;9.68;;;;;;;26.46;54.67;95369.13;10521651;28;20399;-77
2021/11/07 10:15:42;;;;;;;16.77;8.90;;;;;;;27.69;48.25;95362.09;10525112;28;20024;-84
2021/11/07 10:20:48;;;;;;;25.02;13.90;;;;;;;28.96;43.49;95357.25;10528772;28;20047;-88
2021/11/07 10:31:17;;;;;;;16.52;8.45;;;;;;;29.80;41.19;95350.63;10525558;28;20063;-81
2021/11/07 10:42:42;;;;;;;18.67;8.60;;;;;;;31.26;39.63;95304.69;10491775;28;20043;-80
2021/11/07 10:52:37;;;;;;;15.73;7.38;;;;;;;31.40;38.46;95287.28;10522673;28;20076;-81
2021/11/07 10:57:52;;;;;;;12.73;7.10;;;;;;;29.83;39.37;95278.63;10524588;28;20058;-83
2021/11/07 11:03:01;;;;;;;18.95;8.55;;;;;;;29.97;39.66;95272.41;10484510;28;20028;-80
2021/11/07 11:08:07;;;;;;;15.02;7.10;;;;;;;30.21;39.54;95266.59;10479475;28;20021;-81
2021/11/07 11:29:02;;;;;;;15.68;9.00;;;;;;;31.18;37.16;95223.34;10478823;28;20024;-79
2021/11/07 11:34:09;;;;;;;15.35;8.63;;;;;;;28.97;41.69;95225.25;10478557;28;20032;-80
2021/11/07 11:39:18;;;;;;;15.10;9.23;;;;;;;26.67;47.67;95220.69;10479325;28;20098;-80
2021/11/07 11:44:20;;;;;;;22.25;11.57;;;;;;;24.99;55.51;95216.59;10477590;28;20111;-81
2021/11/07 11:54:59;;;;;;;24.77;13.20;;;;;;;22.76;73.87;95205.28;10479887;28;20060;-81
2021/11/07 12:06:52;;;;;;;22.65;17.40;;;;;;;21.72;88.93;95160.50;10381059;28;20977;-81
2021/11/07 12:17:08;;;;;;;18.45;11.23;;;;;;;21.33;92.18;95163.31;10480943;28;20111;-81
2021/11/07 12:22:14;;;;;;;743.65;683.70;;;;;;;21.26;94.18;95152.09;10479492;28;20052;-81
2021/11/07 12:27:17;;;;;;;761.45;699.13;;;;;;;21.04;95.54;95148.50;10483393;28;20047;-80
2021/11/07 12:32:18;;;;;;;316.08;292.88;;;;;;;20.85;98.72;95150.84;10487815;28;20036;-80
2021/11/07 12:43:03;;;;;;;92.72;85.60;;;;;;;20.45;100.00;95143.75;10485927;28;20457;-81
2021/11/07 12:48:07;;;;;;;145.27;133.35;;;;;;;20.65;100.00;95143.06;10468884;28;20036;-84
2021/11/07 12:53:08;;;;;;;531.85;493.02;;;;;;;20.73;100.00;95130.50;10487346;28;20039;-84
2021/11/07 12:58:09;;;;;;;710.78;654.83;;;;;;;20.61;100.00;95125.72;10468910;28;20021;-83
2021/11/07 13:03:12;;;;;;;210.35;196.02;;;;;;;20.52;100.00;95114.03;10490983;28;20036;-84
2021/11/07 13:08:21;;;;;;;223.98;208.55;;;;;;;20.47;100.00;95112.28;10528800;28;20020;-81
2021/11/07 13:13:43;;;;;;;28.25;13.35;;;;;;;20.18;100.00;95104.00;10511025;28;20514;-81
2021/11/07 13:18:51;;;;;;;29.58;13.25;;;;;;;20.05;100.00;95120.28;10527508;28;20063;-81
2021/11/07 13:29:30;;;;;;;666.33;614.90;;;;;;;19.50;100.00;95126.38;10526548;28;20020;-81
2021/11/07 13:34:31;;;;;;;699.33;644.33;;;;;;;19.36;100.00;95123.81;10507415;28;20046;-83
2021/11/07 13:39:36;;;;;;;913.08;841.75;;;;;;;19.23;100.00;95118.19;10527475;28;20437;-82
2021/11/07 13:45:07;;;;;;;26.25;12.40;;;;;;;19.14;100.00;95114.63;10528785;28;20036;-84
2021/11/07 13:50:15;;;;;;;39.42;35.78;;;;;;;19.11;100.00;95110.63;10507448;28;20113;-83
2021/11/07 13:55:25;;;;;;;50.55;45.63;;;;;;;19.02;100.00;95114.47;10491082;28;20138;-83
2021/11/07 14:00:26;;;;;;;29.17;20.02;;;;;;;18.86;100.00;95111.34;10485563;28;20388;-82
2021/11/07 14:05:39;;;;;;;223.85;208.65;;;;;;;18.75;100.00;95110.84;10527324;28;20031;-92
2021/11/07 14:10:42;;;;;;;219.40;203.88;;;;;;;18.52;100.00;95110.94;10520960;28;20498;-89
2021/11/07 14:15:47;;;;;;;40.78;35.53;;;;;;;18.37;100.00;95117.59;10508623;28;20063;-87
2021/11/07 14:20:55;;;;;;;327.02;299.48;;;;;;;18.25;100.00;95112.75;10526640;28;20131;-87
2021/11/07 14:26:40;;;;;;;21.85;9.80;;;;;;;18.19;100.00;95108.53;10512461;28;20029;-88
2021/11/07 14:32:11;;;;;;;20.33;10.10;;;;;;;17.80;100.00;95107.31;10467887;28;20028;-86
2021/11/07 14:37:37;;;;;;;23.67;8.52;;;;;;;17.75;100.00;95110.97;10467842;28;20021;-87
2021/11/07 14:49:12;;;;;;;19.85;10.25;;;;;;;17.42;100.00;95094.09;10486388;28;20024;-86
2021/11/07 15:00:03;;;;;;;31.27;11.63;;;;;;;16.96;100.00;95098.66;10461747;28;20028;-92
2021/11/07 15:27:40;;;;;;;28.65;11.63;;;;;;;16.26;100.00;95078.09;10280777;28;20120;-89
2021/11/07 15:32:42;;;;;;;30.25;11.55;;;;;;;16.10;100.00;95080.28;10349715;28;20146;-89
2021/11/07 15:37:43;;;;;;;23.42;11.23;;;;;;;15.89;100.00;95081.44;10463889;28;20051;-88
2021/11/07 15:42:46;;;;;;;29.17;11.13;;;;;;;15.97;100.00;95079.16;10518424;28;20032;-88
2021/11/07 15:48:00;;;;;;;20.52;10.75;;;;;;;15.96;100.00;95078.31;10479819;28;20040;-83
2021/11/07 15:58:32;;;;;;;28.80;14.18;;;;;;;15.94;100.00;95066.19;10530342;28;20032;-86
2021/11/07 16:03:59;;;;;;;36.42;13.73;;;;;;;15.89;100.00;95070.63;10494048;28;20020;-87
2021/11/07 16:09:14;;;;;;;25.55;13.85;;;;;;;15.92;100.00;95080.06;10499592;28;20024;-87
2021/11/07 16:14:28;;;;;;;32.28;17.00;;;;;;;15.85;100.00;95082.31;10477043;28;20045;-85
2021/11/07 16:19:32;;;;;;;33.58;14.65;;;;;;;15.87;100.00;95077.44;10472706;28;20849;-88
2021/11/07 16:24:33;;;;;;;32.53;15.45;;;;;;;15.73;100.00;95070.03;10471158;28;20841;-86
2021/11/07 16:29:34;;;;;;;37.67;16.17;;;;;;;15.59;100.00;95079.25;10474099;28;20033;-89
2021/11/07 16:34:40;;;;;;;30.23;13.52;;;;;;;15.61;100.00;95074.31;10477136;28;20031;-87
2021/11/07 16:39:47;;;;;;;49.58;27.88;;;;;;;15.45;100.00;95061.03;10484380;28;20041;-88
2021/11/07 16:44:52;;;;;;;37.93;15.93;;;;;;;15.39;100.00;95073.03;10491326;28;20029;-84
2021/11/07 16:49:56;;;;;;;37.63;15.95;;;;;;;15.35;100.00;95067.41;10495859;28;20028;-85
2021/11/07 16:54:59;;;;;;;33.00;15.77;;;;;;;15.21;100.00;95066.56;10472339;28;20028;-89
2021/11/07 17:11:24;;;;;;;34.92;15.13;;;;;;;14.79;100.00;95065.50;10479390;28;20052;-84
2021/11/07 17:16:33;;;;;;;30.38;15.27;;;;;;;14.68;100.00;95067.56;10493718;28;20032;-88
2021/11/07 17:39:27;;;;;;;43.85;18.58;;;;;;;14.35;100.00;95041.16;10525206;22;20135;-72
2021/11/07 17:55:08;;;;;;;42.83;17.20;;;;;;;14.27;100.00;95032.88;10402424;28;20033;-71
2021/11/07 18:00:22;;;;;;;47.75;17.48;;;;;;;14.24;100.00;95022.66;10386449;28;20037;-74
2021/11/07 18:05:30;;;;;;;38.63;16.30;;;;;;;14.09;100.00;95015.53;10404088;28;20104;-75
2021/11/07 18:10:32;;;;;;;46.75;17.63;;;;;;;14.02;100.00;95014.00;10404435;28;20036;-74
2021/11/07 18:15:33;;;;;;;39.35;17.35;;;;;;;13.97;100.00;95015.94;10353181;28;20095;-75
2021/11/07 18:20:34;;;;;;;43.97;19.30;;;;;;;13.75;100.00;95036.16;10383742;28;20459;-75
2021/11/07 18:25:59;;;;;;;42.50;20.15;;;;;;;13.34;100.00;95028.41;10383830;28;20044;-72
2021/11/07 18:30:59;;;;;;;48.00;19.95;;;;;;;13.20;100.00;95019.34;10398385;28;20025;-71
2021/11/07 18:36:01;;;;;;;43.78;18.13;;;;;;;13.27;100.00;95023.34;10399829;28;20033;-73
2021/11/07 18:41:03;;;;;;;45.75;19.60;;;;;;;13.12;100.00;95031.56;10378453;28;20053;-71
2021/11/07 18:46:03;;;;;;;43.90;19.65;;;;;;;13.07;100.00;95020.81;10380505;28;20025;-71
2021/11/07 18:51:04;;;;;;;44.20;20.20;;;;;;;13.05;100.00;95029.19;10380491;28;20458;-73
2021/11/07 18:56:05;;;;;;;72.72;58.85;;;;;;;12.92;100.00;95037.91;10382664;28;20041;-72
2021/11/07 19:01:06;;;;;;;49.25;21.77;;;;;;;12.78;100.00;95029.63;10383621;28;20396;-71
2021/11/07 19:06:07;;;;;;;54.42;20.75;;;;;;;13.01;100.00;95032.72;10383452;28;20037;-75
2021/11/07 19:11:08;;;;;;;44.25;22.48;;;;;;;12.91;100.00;95034.41;10382215;28;20029;-72
2021/11/07 19:16:10;;;;;;;52.20;22.70;;;;;;;12.86;100.00;95031.72;10381920;28;20026;-72
2021/11/07 19:21:11;;;;;;;44.30;20.65;;;;;;;13.07;100.00;95034.28;10379696;28;20596;-70
2021/11/07 19:26:14;;;;;;;50.35;22.52;;;;;;;13.12;100.00;95032.34;10399048;28;20033;-72
2021/11/07 19:31:15;;;;;;;46.95;21.10;;;;;;;13.23;100.00;95032.25;10383106;28;20031;-76
2021/11/07 19:36:16;;;;;;;46.30;22.80;;;;;;;13.12;100.00;95021.56;10382603;28;20026;-74
2021/11/07 19:41:19;;;;;;;52.65;23.85;;;;;;;13.15;100.00;95014.81;10412729;28;20053;-77
2021/11/07 19:46:21;;;;;;;61.80;26.38;;;;;;;13.07;100.00;95010.81;10424720;28;20029;-74
2021/11/07 19:51:22;;;;;;;59.58;26.85;;;;;;;12.97;100.00;95021.69;10423443;28;20121;-73
2021/11/07 19:56:23;;;;;;;63.05;26.23;;;;;;;13.05;100.00;95022.97;10423392;28;20028;-73
2021/11/07 20:02:02;;;;;;;65.53;26.27;;;;;;;13.01;100.00;95020.03;10441297;28;20036;-73
2021/11/07 20:12:02;;;;;;;59.90;26.08;;;;;;;13.16;100.00;95005.63;10441144;28;20029;-74
2021/11/07 20:17:11;;;;;;;56.88;23.65;;;;;;;13.05;100.00;94998.69;10440702;28;20036;-78
2021/11/07 20:22:14;;;;;;;62.42;25.02;;;;;;;12.95;100.00;95011.16;10422908;28;20470;-73
2021/11/07 20:27:23;;;;;;;60.85;25.33;;;;;;;12.77;100.00;95020.72;10438685;28;20033;-74
2021/11/07 20:32:25;;;;;;;61.22;25.55;;;;;;;12.84;100.00;95023.13;10407733;28;20032;-73
2021/11/07 20:37:34;;;;;;;49.95;24.23;;;;;;;12.89;100.00;95016.88;10397868;28;20095;-73
2021/11/07 20:42:38;;;;;;;56.22;25.20;;;;;;;12.84;100.00;95039.31;10439388;28;20024;-73
2021/11/07 20:47:48;;;;;;;50.20;23.33;;;;;;;12.74;100.00;95023.16;10426361;28;20136;-70
2021/11/07 20:52:54;;;;;;;56.00;24.38;;;;;;;12.75;100.00;95014.81;10446259;28;20028;-74
2021/11/07 21:03:00;;;;;;;65.05;26.02;;;;;;;12.40;100.00;95000.44;10456564;22;20144;-85
2021/11/07 21:08:11;;;;;;;51.03;24.95;;;;;;;12.30;100.00;95006.69;10414408;28;20033;-88
2021/11/07 21:13:14;;;;;;;54.10;26.00;;;;;;;12.34;100.00;94998.09;10384901;28;20032;-88
2021/11/07 21:28:42;;;;;;;61.30;28.17;;;;;;;12.03;100.00;94996.31;10404999;28;20025;-88
2021/11/07 21:39:09;;;;;;;54.92;27.98;;;;;;;11.75;100.00;94997.75;10404296;28;20057;-87
2021/11/07 21:44:11;;;;;;;87.55;56.30;;;;;;;11.85;100.00;95000.41;10406266;28;20021;-87
2021/11/07 21:49:12;;;;;;;57.72;28.67;;;;;;;11.86;100.00;94993.94;10410126;28;20025;-88
2021/11/07 21:54:13;;;;;;;60.65;25.92;;;;;;;11.60;100.00;95002.06;10392458;28;20094;-87
2021/11/07 21:59:14;;;;;;;60.15;27.40;;;;;;;11.41;100.00;94996.47;10401685;28;20021;-87
2021/11/07 22:04:16;;;;;;;59.50;27.30;;;;;;;11.28;100.00;94999.72;10403201;28;20048;-86
2021/11/07 22:09:17;;;;;;;58.33;27.23;;;;;;;11.13;100.00;94997.03;10422480;28;20018;-87
2021/11/07 22:14:21;;;;;;;63.92;26.80;;;;;;;10.99;100.00;94989.50;10408734;28;20455;-87
2021/11/07 22:19:39;;;;;;;73.40;44.17;;;;;;;11.15;100.00;94986.78;10404068;28;20485;-89
2021/11/07 22:24:48;;;;;;;54.00;25.83;;;;;;;11.13;100.00;94972.81;10384312;28;20075;-88
2021/11/07 22:30:00;;;;;;;51.97;25.92;;;;;;;11.17;100.00;94979.28;10401556;28;20090;-88
2021/11/07 22:35:04;;;;;;;49.97;23.67;;;;;;;11.06;100.00;94965.81;10401763;28;20025;-88
2021/11/07 22:40:07;;;;;;;59.80;26.85;;;;;;;11.03;100.00;94961.00;10383742;28;20031;-87
2021/11/07 22:45:11;;;;;;;66.40;26.42;;;;;;;10.98;100.00;94963.69;10413039;28;20113;-87
2021/11/07 22:50:53;;;;;;;53.88;28.55;;;;;;;10.87;100.00;94973.66;10383428;28;20049;-88
2021/11/07 23:11:23;;;;;;;62.05;28.20;;;;;;;10.73;100.00;94943.78;10400763;28;20033;-88
2021/11/07 23:16:24;;;;;;;61.33;28.02;;;;;;;10.78;100.00;94924.97;10383389;28;20501;-88
2021/11/07 23:21:25;;;;;;;74.57;29.80;;;;;;;10.90;100.00;94923.91;10400004;28;20065;-87
2021/11/07 23:26:29;;;;;;;69.38;29.10;;;;;;;10.88;100.00;94921.47;10400320;28;20025;-87
2021/11/07 23:31:30;;;;;;;63.85;28.17;;;;;;;10.81;100.00;94938.97;10400809;28;20033;-81
2021/11/07 23:36:30;;;;;;;67.43;28.55;;;;;;;10.75;100.00;94920.13;10382863;28;20108;-81
2021/11/07 23:41:32;;;;;;;56.85;29.15;;;;;;;10.78;100.00;94914.22;10383034;28;20124;-83
2021/11/07 23:46:33;;;;;;;74.75;31.63;;;;;;;10.65;100.00;94928.19;10383034;28;20029;-81
2021/11/07 23:57:01;;;;;;;47.75;21.08;;;;;;;10.58;100.00;94919.59;10400054;28;20100;-81
